createdAt,value
2022-11-25T00:00:33.429Z,14.27
2022-11-25T00:02:59.876Z,11.93
2022-11-25T00:05:26.805Z,13.02
2022-11-25T00:07:53.283Z,11.80
2022-11-25T00:10:19.804Z,12.60
2022-11-25T00:12:46.229Z,12.30
2022-11-25T00:15:12.575Z,13.25
2022-11-25T00:17:39.186Z,13.00
2022-11-25T00:20:06.145Z,13.35
2022-11-25T00:22:32.662Z,12.80
2022-11-25T00:24:59.214Z,13.43
2022-11-25T00:27:25.554Z,13.07
2022-11-25T00:29:53.242Z,13.25
2022-11-25T00:32:19.769Z,12.68
2022-11-25T00:34:46.175Z,13.25
2022-11-25T00:37:12.637Z,12.52
2022-11-25T00:39:38.967Z,13.48
2022-11-25T00:42:24.002Z,14.18
2022-11-25T00:44:50.430Z,13.68
2022-11-25T00:47:20.291Z,13.02
2022-11-25T00:49:48.738Z,14.80
2022-11-25T00:52:17.344Z,14.90
2022-11-25T00:54:47.604Z,13.48
2022-11-25T00:57:15.223Z,15.05
2022-11-25T00:59:41.631Z,15.38
2022-11-25T01:02:08.253Z,15.20
2022-11-25T01:04:35.201Z,15.15
2022-11-25T01:07:02.174Z,15.65
2022-11-25T01:09:29.050Z,15.73
2022-11-25T01:11:55.422Z,14.40
2022-11-25T01:14:23.076Z,15.52
2022-11-25T01:16:51.410Z,14.43
2022-11-25T01:19:19.140Z,14.43
2022-11-25T01:21:46.911Z,15.82
2022-11-25T01:24:15.365Z,16.23
2022-11-25T01:26:42.655Z,15.18
2022-11-25T01:29:15.120Z,14.73
2022-11-25T01:31:42.568Z,14.43
2022-11-25T01:34:21.186Z,14.60
2022-11-25T01:36:48.148Z,14.48
2022-11-25T01:39:20.420Z,15.15
2022-11-25T01:41:47.871Z,15.70
2022-11-25T01:44:25.417Z,15.27
2022-11-25T01:47:16.993Z,17.30
2022-11-25T01:49:53.897Z,19.52
2022-11-25T01:52:28.873Z,20.90
2022-11-25T01:55:08.975Z,20.15
2022-11-25T01:57:59.350Z,20.90
2022-11-25T02:00:25.796Z,17.92
2022-11-25T02:02:54.878Z,19.40
2022-11-25T02:05:33.646Z,18.27
2022-11-25T02:08:00.875Z,17.98
2022-11-25T02:10:30.557Z,17.75
2022-11-25T02:12:59.258Z,16.48
2022-11-25T02:15:26.596Z,16.70
2022-11-25T02:17:53.218Z,16.25
2022-11-25T02:20:23.830Z,15.90
2022-11-25T02:23:16.010Z,16.90
2022-11-25T02:25:45.503Z,14.82
2022-11-25T02:28:17.174Z,13.85
2022-11-25T02:30:44.539Z,14.93
2022-11-25T02:33:11.857Z,15.13
2022-11-25T02:35:43.138Z,16.38
2022-11-25T02:38:15.305Z,15.57
2022-11-25T02:40:47.603Z,16.08
2022-11-25T02:43:14.762Z,18.02
2022-11-25T02:46:00.148Z,17.15
2022-11-25T02:48:52.896Z,16.25
2022-11-25T02:51:17.244Z,15.38
2022-11-25T02:53:44.083Z,14.95
2022-11-25T02:56:12.724Z,15.65
2022-11-25T02:58:39.799Z,17.13
2022-11-25T03:01:08.315Z,15.65
2022-11-25T03:03:35.874Z,18.60
2022-11-25T03:06:02.770Z,16.98
2022-11-25T03:08:29.214Z,16.50
2022-11-25T03:10:55.773Z,17.17
2022-11-25T03:13:22.311Z,17.15
2022-11-25T03:15:48.682Z,18.58
2022-11-25T03:18:15.159Z,16.98
2022-11-25T03:20:41.917Z,17.38
2022-11-25T03:23:08.376Z,16.98
2022-11-25T03:25:35.921Z,17.45
2022-11-25T03:28:03.551Z,17.13
2022-11-25T03:30:30.446Z,17.92
2022-11-25T03:32:59.264Z,16.27
2022-11-25T03:35:26.897Z,17.67
2022-11-25T03:37:53.405Z,16.40
2022-11-25T03:40:19.893Z,16.58
2022-11-25T03:42:46.473Z,17.13
2022-11-25T03:45:14.780Z,16.52
2022-11-25T03:47:43.318Z,16.30
2022-11-25T03:50:12.541Z,15.52
2022-11-25T03:52:39.526Z,15.82
2022-11-25T03:55:08.389Z,16.45
2022-11-25T03:57:36.157Z,16.80
2022-11-25T04:00:04.417Z,15.95
2022-11-25T04:02:44.442Z,15.85
2022-11-25T04:05:12.499Z,17.05
2022-11-25T04:07:39.727Z,15.00
2022-11-25T04:10:08.391Z,15.02
2022-11-25T04:12:47.459Z,15.73
2022-11-25T04:15:18.623Z,15.07
2022-11-25T04:17:49.708Z,16.15
2022-11-25T04:20:16.267Z,15.30
2022-11-25T04:22:46.262Z,15.55
2022-11-25T04:25:12.791Z,15.18
2022-11-25T04:27:39.334Z,15.18
2022-11-25T04:30:07.009Z,14.43
2022-11-25T04:32:38.149Z,14.13
2022-11-25T04:35:06.286Z,14.00
2022-11-25T04:37:33.250Z,14.15
2022-11-25T04:39:59.727Z,12.68
2022-11-25T04:42:32.890Z,13.48
2022-11-25T04:47:52.990Z,11.82
2022-11-25T04:50:22.323Z,12.18
2022-11-25T04:52:55.590Z,11.05
2022-11-25T04:55:23.005Z,11.80
2022-11-25T04:57:50.197Z,11.05
2022-11-25T05:00:17.042Z,11.43
2022-11-25T05:02:43.615Z,11.85
2022-11-25T05:05:18.272Z,10.98
2022-11-25T05:07:45.219Z,10.63
2022-11-25T05:10:12.677Z,10.70
2022-11-25T05:12:43.812Z,11.10
2022-11-25T05:15:15.414Z,11.38
2022-11-25T05:17:44.740Z,10.50
2022-11-25T05:20:11.607Z,11.77
2022-11-25T05:22:38.403Z,10.65
2022-11-25T05:25:07.054Z,9.32
2022-11-25T05:27:38.425Z,10.27
2022-11-25T05:30:08.930Z,10.02
2022-11-25T05:32:35.390Z,10.15
2022-11-25T05:35:07.013Z,10.25
2022-11-25T05:37:34.103Z,9.20
2022-11-25T05:40:04.698Z,9.80
2022-11-25T05:42:43.453Z,10.15
2022-11-25T05:45:11.176Z,10.85
2022-11-25T05:47:38.779Z,11.40
2022-11-25T05:50:07.013Z,11.93
2022-11-25T05:52:33.994Z,11.05
2022-11-25T05:55:01.563Z,11.20
2022-11-25T05:57:29.197Z,11.63
2022-11-25T06:00:00.599Z,11.93
2022-11-25T06:02:43.753Z,10.65
2022-11-25T06:05:13.150Z,11.73
2022-11-25T06:07:39.809Z,11.02
2022-11-25T06:10:07.311Z,11.43
2022-11-25T06:12:35.994Z,11.50
2022-11-25T06:15:03.511Z,13.07
2022-11-25T06:17:30.525Z,11.55
2022-11-25T06:20:09.425Z,11.80
2022-11-25T06:22:35.870Z,11.05
2022-11-25T06:25:04.120Z,10.90
2022-11-25T06:27:56.834Z,11.13
2022-11-25T06:30:20.582Z,12.07
2022-11-25T06:33:00.001Z,11.15
2022-11-25T06:35:26.778Z,11.23
2022-11-25T06:37:59.235Z,11.00
2022-11-25T06:40:25.843Z,11.70
2022-11-25T06:42:52.228Z,11.52
2022-11-25T06:45:20.548Z,11.35
2022-11-25T06:47:46.995Z,11.82
2022-11-25T06:50:13.343Z,12.18
2022-11-25T06:52:39.849Z,10.50
2022-11-25T06:55:06.495Z,11.63
2022-11-25T06:57:32.859Z,11.73
2022-11-25T06:59:59.287Z,11.45
2022-11-25T07:02:25.825Z,11.38
2022-11-25T07:04:52.243Z,10.95
2022-11-25T07:07:18.631Z,10.40
2022-11-25T07:09:45.198Z,10.27
2022-11-25T07:12:12.337Z,10.70
2022-11-25T07:14:39.048Z,10.27
2022-11-25T07:17:11.600Z,10.15
2022-11-25T07:19:38.505Z,9.70
2022-11-25T07:22:04.953Z,9.30
2022-11-25T07:24:31.384Z,9.65
2022-11-25T07:26:57.836Z,9.30
2022-11-25T07:32:11.143Z,9.13
2022-11-25T07:34:37.822Z,8.85
2022-11-25T07:37:04.254Z,8.75
2022-11-25T07:39:30.869Z,7.88
2022-11-25T07:41:57.414Z,8.38
2022-11-25T07:44:23.802Z,7.18
2022-11-25T07:47:00.753Z,8.00
2022-11-25T07:49:28.434Z,7.75
2022-11-25T07:51:57.547Z,7.80
2022-11-25T07:54:24.331Z,8.02
2022-11-25T07:56:51.591Z,7.45
2022-11-25T07:59:21.182Z,7.25
2022-11-25T08:01:55.512Z,7.75
2022-11-25T08:04:23.139Z,6.43
2022-11-25T08:06:51.902Z,6.57
2022-11-25T08:09:21.638Z,6.82
2022-11-25T08:11:49.202Z,7.57
2022-11-25T08:14:16.459Z,6.90
2022-11-25T08:16:43.222Z,7.20
2022-11-25T08:19:13.627Z,6.50
2022-11-25T08:21:40.294Z,6.93
2022-11-25T08:24:06.873Z,6.18
2022-11-25T08:26:39.597Z,6.72
2022-11-25T08:29:07.191Z,6.75
2022-11-25T08:31:36.750Z,6.43
2022-11-25T08:34:04.961Z,6.93
2022-11-25T08:36:32.117Z,7.35
2022-11-25T08:39:00.031Z,6.22
2022-11-25T08:41:32.528Z,6.68
2022-11-25T08:44:00.951Z,6.60
2022-11-25T08:46:30.045Z,7.63
2022-11-25T08:48:56.832Z,6.25
2022-11-25T08:51:26.861Z,7.20
2022-11-25T08:53:53.830Z,6.90
2022-11-25T08:56:25.993Z,7.20
2022-11-25T08:58:54.232Z,7.15
2022-11-25T09:01:22.359Z,6.75
2022-11-25T09:03:51.674Z,7.15
2022-11-25T09:06:18.799Z,7.22
2022-11-25T09:08:46.120Z,6.13
2022-11-25T09:11:13.491Z,6.25
2022-11-25T09:13:40.091Z,6.30
2022-11-25T09:16:07.392Z,6.97
2022-11-25T09:18:35.277Z,6.18
2022-11-25T09:21:09.702Z,7.18
2022-11-25T09:23:38.407Z,6.68
2022-11-25T09:26:06.346Z,6.78
2022-11-25T09:28:32.994Z,7.05
2022-11-25T09:30:59.497Z,6.13
2022-11-25T09:33:25.898Z,7.03
2022-11-25T09:35:52.487Z,6.10
2022-11-25T09:38:18.848Z,6.70
2022-11-25T09:40:53.747Z,6.85
2022-11-25T09:44:03.503Z,6.43
2022-11-25T09:46:41.844Z,6.82
2022-11-25T09:49:45.599Z,6.70
2022-11-25T09:52:17.605Z,5.90
2022-11-25T09:55:06.764Z,6.82
2022-11-25T09:57:56.478Z,6.88
2022-11-25T10:00:33.534Z,6.88
2022-11-25T10:03:05.791Z,6.32
2022-11-25T10:05:41.746Z,6.72
2022-11-25T10:08:23.279Z,6.75
2022-11-25T10:11:02.973Z,6.68
2022-11-25T10:13:50.025Z,7.28
2022-11-25T10:16:27.635Z,6.95
2022-11-25T10:19:06.217Z,6.90
2022-11-25T10:21:32.558Z,6.85
2022-11-25T10:23:59.178Z,7.85
2022-11-25T10:26:31.941Z,7.20
2022-11-25T10:29:13.568Z,7.05
2022-11-25T10:31:42.428Z,7.90
2022-11-25T10:34:24.254Z,7.47
2022-11-25T10:36:52.925Z,6.88
2022-11-25T10:39:26.975Z,7.60
2022-11-25T10:42:04.667Z,7.07
2022-11-25T10:44:39.835Z,6.80
2022-11-25T10:47:32.023Z,8.02
2022-11-25T10:50:26.457Z,7.45
2022-11-25T10:53:21.526Z,7.25
2022-11-25T10:56:12.390Z,6.38
2022-11-25T10:58:42.305Z,6.75
2022-11-25T11:01:23.172Z,6.43
2022-11-25T11:04:05.724Z,6.78
2022-11-25T11:06:36.374Z,8.30
2022-11-25T11:09:03.762Z,7.22
2022-11-25T11:11:30.714Z,6.82
2022-11-25T11:14:20.318Z,7.13
2022-11-25T11:16:57.202Z,7.13
2022-11-25T11:19:27.123Z,6.65
2022-11-25T11:21:56.400Z,7.13
2022-11-25T11:24:34.313Z,6.15
2022-11-25T11:27:05.193Z,7.47
2022-11-25T11:29:32.101Z,6.90
2022-11-25T11:32:01.605Z,7.10
2022-11-25T11:34:55.386Z,7.20
2022-11-25T11:37:38.703Z,6.95
2022-11-25T11:40:17.363Z,7.55
2022-11-25T11:42:50.405Z,7.10
2022-11-25T11:45:48.223Z,7.43
2022-11-25T11:48:29.414Z,8.00
2022-11-25T11:51:14.351Z,7.13
2022-11-25T11:53:51.154Z,7.15
2022-11-25T11:56:39.345Z,7.72
2022-11-25T11:59:19.344Z,7.35
2022-11-25T12:02:04.433Z,7.95
2022-11-25T12:04:41.817Z,7.75
2022-11-25T12:07:31.289Z,8.40
2022-11-25T12:10:06.309Z,8.20
2022-11-25T12:12:38.604Z,7.55
2022-11-25T12:15:16.843Z,8.57
2022-11-25T12:17:54.489Z,8.77
2022-11-25T12:20:38.622Z,8.20
2022-11-25T12:23:24.976Z,8.27
2022-11-25T12:25:57.604Z,7.82
2022-11-25T12:28:39.213Z,7.63
2022-11-25T12:31:16.401Z,8.60
2022-11-25T12:34:07.638Z,8.23
2022-11-25T12:36:35.324Z,8.70
2022-11-25T12:39:24.221Z,7.85
2022-11-25T12:41:59.343Z,7.30
2022-11-25T12:44:31.150Z,7.75
2022-11-25T12:46:58.319Z,8.32
2022-11-25T12:49:30.125Z,8.55
2022-11-25T12:52:21.255Z,8.50
2022-11-25T12:55:04.360Z,8.52
2022-11-25T12:57:57.004Z,8.48
2022-11-25T13:01:00.207Z,7.78
2022-11-25T13:04:13.024Z,8.90
2022-11-25T13:07:21.274Z,7.75
2022-11-25T13:10:14.192Z,7.82
2022-11-25T13:12:57.841Z,8.75
2022-11-25T13:15:38.047Z,8.30
2022-11-25T13:18:14.233Z,9.15
2022-11-25T13:20:47.147Z,7.80
2022-11-25T13:23:16.752Z,7.85
2022-11-25T13:25:46.797Z,8.63
2022-11-25T13:28:32.864Z,8.20
2022-11-25T13:31:21.381Z,8.52
2022-11-25T13:33:47.843Z,9.00
2022-11-25T13:36:20.062Z,8.70
2022-11-25T13:38:49.803Z,8.23
2022-11-25T13:41:16.099Z,9.20
2022-11-25T13:44:01.784Z,9.05
2022-11-25T13:46:45.365Z,9.05
2022-11-25T13:49:37.523Z,8.65
2022-11-25T13:52:12.951Z,8.10
2022-11-25T13:54:45.969Z,9.48
2022-11-25T13:57:12.231Z,9.55
2022-11-25T14:00:01.021Z,8.05
2022-11-25T14:02:27.689Z,8.38
2022-11-25T14:05:06.682Z,8.73
2022-11-25T14:07:58.203Z,9.20
2022-11-25T14:10:41.473Z,8.07
2022-11-25T14:13:35.968Z,7.93
2022-11-25T14:16:43.511Z,8.20
2022-11-25T14:19:43.211Z,8.80
2022-11-25T14:22:09.708Z,8.50
2022-11-25T14:24:36.030Z,8.23
2022-11-25T14:27:04.465Z,8.35
2022-11-25T14:29:40.433Z,7.93
2022-11-25T14:32:22.687Z,8.00
2022-11-25T14:34:59.641Z,8.38
2022-11-25T14:37:42.458Z,8.57
2022-11-25T14:40:21.080Z,8.73
2022-11-25T14:42:51.975Z,7.72
2022-11-25T14:45:30.954Z,8.45
2022-11-25T14:47:57.553Z,8.60
2022-11-25T14:50:34.728Z,7.85
2022-11-25T14:53:06.561Z,9.55
2022-11-25T14:55:32.967Z,8.23
2022-11-25T14:57:59.602Z,9.50
2022-11-25T15:00:26.277Z,9.40
2022-11-25T15:03:01.359Z,8.95
2022-11-25T15:05:37.918Z,9.15
2022-11-25T15:08:13.138Z,9.10
2022-11-25T15:10:51.336Z,9.23
2022-11-25T15:13:32.662Z,9.32
2022-11-25T15:16:08.246Z,9.52
2022-11-25T15:18:35.586Z,9.63
2022-11-25T15:21:03.089Z,10.88
2022-11-25T15:23:34.512Z,9.90
2022-11-25T15:26:02.250Z,11.18
2022-11-25T15:28:36.476Z,10.63
2022-11-25T15:31:12.561Z,11.00
2022-11-25T15:33:40.343Z,11.32
2022-11-25T15:36:06.964Z,10.63
2022-11-25T15:38:37.265Z,10.88
2022-11-25T15:41:05.527Z,10.75
2022-11-25T15:43:44.571Z,11.13
2022-11-25T15:46:11.100Z,10.70
2022-11-25T15:48:47.211Z,10.73
2022-11-25T15:51:20.037Z,9.95
2022-11-25T15:53:53.306Z,10.35
2022-11-25T15:56:23.412Z,9.73
2022-11-25T15:58:50.009Z,9.25
2022-11-25T16:01:17.100Z,10.13
2022-11-25T16:03:44.927Z,10.75
2022-11-25T16:06:19.425Z,9.30
2022-11-25T16:09:00.836Z,9.95
2022-11-25T16:11:33.051Z,9.93
2022-11-25T16:14:30.739Z,10.02
2022-11-25T16:17:02.798Z,11.90
2022-11-25T16:19:38.500Z,12.95
2022-11-25T16:22:05.640Z,12.25
2022-11-25T16:24:48.787Z,13.43
2022-11-25T16:27:25.597Z,14.18
2022-11-25T16:29:57.808Z,14.95
2022-11-25T16:32:26.951Z,13.75
2022-11-25T16:34:56.708Z,15.30
2022-11-25T16:37:23.857Z,13.50
2022-11-25T16:39:50.197Z,14.77
2022-11-25T16:42:21.850Z,13.90
2022-11-25T16:44:50.878Z,13.57
2022-11-25T16:47:20.057Z,13.98
2022-11-25T16:49:46.928Z,13.82
2022-11-25T16:52:14.164Z,13.32
2022-11-25T16:54:41.811Z,12.93
2022-11-25T16:57:16.101Z,12.30
2022-11-25T16:59:44.529Z,12.00
2022-11-25T17:02:18.503Z,12.02
2022-11-25T17:04:46.166Z,12.80
2022-11-25T17:07:32.859Z,13.63
2022-11-25T17:09:59.834Z,11.52
2022-11-25T17:12:30.362Z,12.60
2022-11-25T17:14:59.698Z,12.10
2022-11-25T17:17:27.007Z,13.18
2022-11-25T17:19:53.747Z,15.27
2022-11-25T17:22:22.963Z,14.70
2022-11-25T17:24:49.350Z,16.13
2022-11-25T17:27:33.846Z,15.60
2022-11-25T17:30:03.953Z,15.05
2022-11-25T17:32:31.202Z,15.98
2022-11-25T17:34:57.606Z,15.10
2022-11-25T17:37:25.464Z,14.52
2022-11-25T17:39:53.412Z,14.07
2022-11-25T17:42:26.520Z,14.15
2022-11-25T17:44:54.357Z,14.93
2022-11-25T17:47:21.091Z,14.45
2022-11-25T17:49:48.199Z,15.68
2022-11-25T17:52:14.586Z,15.05
2022-11-25T17:54:41.752Z,13.57
2022-11-25T17:57:14.089Z,16.02
2022-11-25T17:59:40.981Z,14.68
2022-11-25T18:02:18.933Z,14.65
2022-11-25T18:04:45.728Z,18.33
2022-11-25T18:07:12.155Z,16.50
2022-11-25T18:09:38.651Z,15.13
2022-11-25T18:12:10.588Z,16.17
2022-11-25T18:14:37.982Z,16.50
2022-11-25T18:17:07.475Z,16.40
2022-11-25T18:19:34.653Z,14.90
2022-11-25T18:22:10.808Z,16.27
2022-11-25T18:24:37.549Z,18.42
2022-11-25T18:27:05.801Z,19.38
2022-11-25T18:29:32.492Z,17.70
2022-11-25T18:31:59.607Z,17.25
2022-11-25T18:34:26.745Z,16.90
2022-11-25T18:36:53.650Z,18.90
2022-11-25T18:39:20.467Z,21.42
2022-11-25T18:41:47.877Z,19.17
2022-11-25T18:44:37.821Z,17.63
2022-11-25T18:47:05.455Z,17.55
2022-11-25T18:49:31.862Z,16.67
2022-11-25T18:51:58.239Z,16.65
2022-11-25T18:54:24.634Z,15.25
2022-11-25T18:56:52.099Z,15.48
2022-11-25T18:59:26.767Z,15.98
2022-11-25T19:01:54.253Z,15.85
2022-11-25T19:04:20.658Z,15.65
2022-11-25T19:06:47.081Z,15.93
2022-11-25T19:09:13.547Z,14.57
2022-11-25T19:11:45.592Z,17.45
2022-11-25T19:14:23.603Z,17.35
2022-11-25T19:16:50.138Z,17.50
2022-11-25T19:19:16.898Z,19.02
2022-11-25T19:21:43.562Z,20.63
2022-11-25T19:24:13.158Z,22.75
2022-11-25T19:26:52.197Z,20.63
2022-11-25T19:29:42.304Z,20.52
2022-11-25T19:32:26.234Z,23.65
2022-11-25T19:35:03.348Z,22.85
2022-11-25T19:37:32.840Z,21.88
2022-11-25T19:39:59.187Z,21.65
2022-11-25T19:42:25.812Z,21.55
2022-11-25T19:44:52.902Z,21.08
2022-11-25T19:47:22.024Z,24.02
2022-11-25T19:49:50.961Z,23.30
2022-11-25T19:52:20.577Z,23.25
2022-11-25T19:54:47.543Z,22.85
2022-11-25T19:57:20.470Z,20.45
2022-11-25T19:59:47.671Z,20.00
2022-11-25T20:02:22.646Z,21.42
2022-11-25T20:04:52.430Z,21.17
2022-11-25T20:07:20.291Z,23.33
2022-11-25T20:09:47.527Z,22.80
2022-11-25T20:12:23.739Z,23.38
2022-11-25T20:14:50.766Z,22.83
2022-11-25T20:17:29.524Z,21.08
2022-11-25T20:19:59.972Z,23.02
2022-11-25T20:22:32.432Z,22.08
2022-11-25T20:25:02.258Z,22.95
2022-11-25T20:27:29.285Z,22.67
2022-11-25T20:29:55.855Z,22.17
2022-11-25T20:32:28.000Z,21.17
2022-11-25T20:34:58.272Z,19.98
2022-11-25T20:37:26.302Z,22.27
2022-11-25T20:39:55.901Z,20.90
2022-11-25T20:42:23.095Z,20.50
2022-11-25T20:44:52.121Z,22.10
2022-11-25T20:47:24.424Z,21.80
2022-11-25T20:49:50.781Z,19.70
2022-11-25T20:52:26.718Z,20.83
2022-11-25T20:54:53.070Z,19.92
2022-11-25T20:57:19.399Z,20.25
2022-11-25T20:59:46.086Z,20.10
2022-11-25T21:02:12.545Z,18.52
2022-11-25T21:04:39.287Z,19.42
2022-11-25T21:07:07.013Z,18.80
2022-11-25T21:09:35.699Z,18.65
2022-11-25T21:12:03.181Z,19.13
2022-11-25T21:14:30.055Z,17.75
2022-11-25T21:16:56.502Z,19.45
2022-11-25T21:19:22.967Z,18.73
2022-11-25T21:21:50.732Z,17.90
2022-11-25T21:24:28.776Z,17.55
2022-11-25T21:26:56.854Z,18.42
2022-11-25T21:29:23.339Z,16.85
2022-11-25T21:31:49.740Z,16.75
2022-11-25T21:34:16.206Z,16.63
2022-11-25T21:36:45.207Z,17.73
2022-11-25T21:39:26.778Z,15.90
2022-11-25T21:41:54.222Z,15.27
2022-11-25T21:44:32.798Z,14.20
2022-11-25T21:46:59.222Z,14.65
2022-11-25T21:49:26.482Z,15.07
2022-11-25T21:51:52.942Z,12.93
2022-11-25T21:54:19.427Z,13.73
2022-11-25T21:56:46.226Z,13.40
2022-11-25T21:59:18.659Z,11.70
2022-11-25T22:01:47.066Z,12.38
2022-11-25T22:04:19.502Z,12.43
2022-11-25T22:06:46.879Z,12.15
2022-11-25T22:09:14.085Z,11.77
2022-11-25T22:11:47.564Z,11.65
2022-11-25T22:14:27.707Z,10.98
2022-11-25T22:16:55.966Z,10.00
2022-11-25T22:19:25.932Z,9.80
2022-11-25T22:21:52.440Z,9.35
2022-11-25T22:24:19.987Z,9.35
2022-11-25T22:26:51.275Z,10.05
2022-11-25T22:29:22.552Z,11.23
2022-11-25T22:31:49.753Z,11.15
2022-11-25T22:34:21.893Z,11.75
2022-11-25T22:36:49.299Z,10.30
2022-11-25T22:39:21.330Z,10.57
2022-11-25T22:41:50.728Z,10.13
2022-11-25T22:44:45.768Z,10.07
2022-11-25T22:47:39.089Z,10.20
2022-11-25T22:50:16.805Z,9.88
2022-11-25T22:52:43.161Z,9.93
2022-11-25T22:55:27.783Z,10.05
2022-11-25T22:57:56.388Z,10.27
2022-11-25T23:00:28.782Z,9.63
2022-11-25T23:02:57.118Z,8.52
2022-11-25T23:05:33.302Z,9.52
2022-11-25T23:08:02.460Z,9.55
2022-11-25T23:10:30.879Z,9.70
2022-11-25T23:12:57.247Z,9.07
2022-11-25T23:15:24.652Z,9.88
2022-11-25T23:17:54.857Z,9.18
2022-11-25T23:20:26.738Z,9.15
2022-11-25T23:22:53.398Z,8.80
2022-11-25T23:25:21.667Z,9.10
2022-11-25T23:27:48.083Z,8.00
2022-11-25T23:30:20.405Z,8.23
2022-11-25T23:32:50.070Z,9.30
2022-11-25T23:35:18.801Z,9.43
2022-11-25T23:37:50.311Z,7.53
2022-11-25T23:40:21.340Z,9.25
2022-11-25T23:42:48.194Z,8.05
2022-11-25T23:45:17.103Z,7.90
2022-11-25T23:47:46.338Z,9.55
2022-11-25T23:50:26.734Z,8.35
2022-11-25T23:52:57.993Z,8.02
2022-11-25T23:55:28.782Z,8.57
2022-11-25T23:57:55.671Z,8.15
